This is the latest recevied weather packets stored in our database for station/object KB3KBR-WX. If no packets are shown the sender has not sent any weather packets the latest 1 day(s).
| Time | Temp. | Humidity | Pressure | Rain* | Wind** | Luminosity | Snow |
|---|---|---|---|---|---|---|---|
| 1778039822 | 11.11° C | 93% | 1004.9 hPa | 0.51 mm | - | - | - |
| 1778039490 | 11.11° C | 93% | 1004.7 hPa | 0.51 mm | - | - | - |
| 1778039190 | 11.11° C | 94% | 1005 hPa | 0.51 mm | - | - | - |
| 1778038890 | 11.11° C | 93% | 1005.1 hPa | 0.76 mm | - | - | - |
| 1778038560 | 11.11° C | 93% | 1005.2 hPa | 0.76 mm | - | - | - |
| 1778038260 | 11.11° C | 93% | 1005.3 hPa | 1.02 mm | - | - | - |
| 1778037930 | 11.11° C | 93% | 1005.3 hPa | 1.02 mm | - | - | - |
| 1778037630 | 11.11° C | 93% | 1005.3 hPa | 2.03 mm | - | - | - |
| 1778037330 | 11.11° C | 93% | 1005.5 hPa | 2.29 mm | - | - | - |
| 1778037000 | 10.56° C | 93% | 1005.6 hPa | 2.79 mm | - | - | - |
| 1778036700 | 10.56° C | 93% | 1005.3 hPa | 2.79 mm | - | - | - |
| 1778036370 | 10.56° C | 93% | 1005.2 hPa | 3.05 mm | - | - | - |
| 1778036040 | 10.56° C | 93% | 1005.2 hPa | 3.56 mm | - | - | - |
| 1778035410 | 10.56° C | 93% | 1005.2 hPa | 5.59 mm | - | - | - |
| 1778034780 | 10.56° C | 92% | 1005.8 hPa | 5.59 mm | - | - | - |
| 1778034480 | 10.56° C | 92% | 1005.9 hPa | 5.33 mm | - | - | - |
| 1778034150 | 10.56° C | 92% | 1005.9 hPa | 4.83 mm | - | - | - |
| 1778033820 | 10.56° C | 92% | 1005.8 hPa | 4.06 mm | - | - | - |
| 1778033520 | 11.11° C | 92% | 1006.3 hPa | 3.56 mm | - | - | - |
| 1778033220 | 11.11° C | 91% | 1006 hPa | 3.05 mm | - | - | - |
| 1778032560 | 11.11° C | 90% | 1005.9 hPa | 2.54 mm | - | - | - |
| 1778032260 | 12.22° C | 90% | 1006.7 hPa | 1.02 mm | - | - | - |
| 1778031930 | 12.78° C | 90% | 1005.5 hPa | 0.51 mm | - | - | - |
| 1778031630 | 13.33° C | 92% | 1005.6 hPa | 0 mm | - | - | - |
| 1778031299 | 13.33° C | 92% | 1005.4 hPa | 0 mm | - | - | - |
* Rain latest hour (hover to see other rain measurements)
** Current wind speed in m/s (hover to see current wind gust speed)